SCX1968 KBWI-KMSP
Flight info
| Callsign | SCX1968 |
|---|---|
| Flight time | N/A |
| Altitude | 34000 |
| Route | LINSE2 MCRAY Q178 DJB J34 VIO KAMMA KKILR4 |
| Aircraft | B738/M-SDE2E3FGHIRWXY/LB1 |
Departure
| Time | 2026-05-08 03:29 |
|---|---|
| Airport | Baltimore/Washington International Thurgood Marshall Airport (KBWI) |
Arrival
| Time | N/A |
|---|---|
| Airport | Minneapolis–Saint Paul International Airport / Wold–Chamberlain Field (KMSP) |
| Time | Latitude | Longitude | Altitude | Speed | Heading |
|---|---|---|---|---|---|
| 2026-05-08 03:01 | 39.18082 | -76.66634 | 143 ft | 0 kts | 215° |
| 2026-05-08 03:17 | 39.18088 | -76.66629 | 142 ft | 2 kts | 214° |
| 2026-05-08 03:17 | 39.18101 | -76.66619 | 142 ft | 2 kts | 208° |
| 2026-05-08 03:18 | 39.18114 | -76.66611 | 142 ft | 2 kts | 203° |
| 2026-05-08 03:18 | 39.18128 | -76.66603 | 142 ft | 2 kts | 204° |
| 2026-05-08 03:18 | 39.18142 | -76.66595 | 142 ft | 2 kts | 204° |
| 2026-05-08 03:18 | 39.18156 | -76.66587 | 142 ft | 2 kts | 204° |
| 2026-05-08 03:19 | 39.18169 | -76.66579 | 142 ft | 2 kts | 204° |
| 2026-05-08 03:19 | 39.18183 | -76.66571 | 142 ft | 2 kts | 204° |
| 2026-05-08 03:19 | 39.18187 | -76.66569 | 142 ft | 0 kts | 204° |
| 2026-05-08 03:21 | 39.18166 | -76.66552 | 142 ft | 5 kts | 122° |
| 2026-05-08 03:21 | 39.18159 | -76.66524 | 142 ft | 2 kts | 57° |
| 2026-05-08 03:22 | 39.18187 | -76.66498 | 142 ft | 10 kts | 39° |
| 2026-05-08 03:22 | 39.18235 | -76.66419 | 143 ft | 11 kts | 58° |
| 2026-05-08 03:22 | 39.18276 | -76.66338 | 142 ft | 10 kts | 55° |
| 2026-05-08 03:22 | 39.18296 | -76.66286 | 142 ft | 2 kts | 122° |
| 2026-05-08 03:23 | 39.18288 | -76.66293 | 142 ft | 3 kts | 269° |
| 2026-05-08 03:23 | 39.18347 | -76.66320 | 142 ft | 12 kts | 14° |
| 2026-05-08 03:23 | 39.18402 | -76.66267 | 138 ft | 1 kts | 88° |
| 2026-05-08 03:23 | 39.18353 | -76.66208 | 131 ft | 22 kts | 144° |
| 2026-05-08 03:24 | 39.18201 | -76.66071 | 125 ft | 25 kts | 140° |
| 2026-05-08 03:24 | 39.18083 | -76.65979 | 136 ft | 15 kts | 187° |
| 2026-05-08 03:24 | 39.18002 | -76.66032 | 142 ft | 17 kts | 213° |
| 2026-05-08 03:24 | 39.17860 | -76.66152 | 142 ft | 25 kts | 213° |
| 2026-05-08 03:25 | 39.17719 | -76.66274 | 141 ft | 23 kts | 212° |
| 2026-05-08 03:25 | 39.17578 | -76.66387 | 140 ft | 22 kts | 213° |
| 2026-05-08 03:25 | 39.17476 | -76.66475 | 142 ft | 16 kts | 214° |
| 2026-05-08 03:25 | 39.17450 | -76.66612 | 140 ft | 18 kts | 272° |
| 2026-05-08 03:26 | 39.17459 | -76.66794 | 131 ft | 22 kts | 272° |
| 2026-05-08 03:26 | 39.17484 | -76.67004 | 127 ft | 23 kts | 293° |
| 2026-05-08 03:26 | 39.17607 | -76.67164 | 130 ft | 26 kts | 323° |
| 2026-05-08 03:26 | 39.17759 | -76.67304 | 129 ft | 28 kts | 323° |
| 2026-05-08 03:27 | 39.17917 | -76.67451 | 129 ft | 27 kts | 322° |
| 2026-05-08 03:27 | 39.18075 | -76.67597 | 127 ft | 27 kts | 324° |
| 2026-05-08 03:27 | 39.18219 | -76.67732 | 129 ft | 25 kts | 323° |
| 2026-05-08 03:27 | 39.18358 | -76.67860 | 129 ft | 24 kts | 323° |
| 2026-05-08 03:28 | 39.18490 | -76.67983 | 129 ft | 22 kts | 325° |
| 2026-05-08 03:28 | 39.18574 | -76.68108 | 129 ft | 16 kts | 256° |
| 2026-05-08 03:28 | 39.18486 | -76.68153 | 129 ft | 15 kts | 150° |
| 2026-05-08 03:28 | 39.18393 | -76.68067 | 129 ft | 22 kts | 144° |
| 2026-05-08 03:29 | 39.18072 | -76.67768 | 129 ft | 92 kts | 144° |
| 2026-05-08 03:29 | 39.17383 | -76.67130 | 139 ft | 147 kts | 144° |
| 2026-05-08 03:29 | 39.16453 | -76.66262 | 351 ft | 172 kts | 146° |
| 2026-05-08 03:29 | 39.15505 | -76.65395 | 1066 ft | 168 kts | 146° |
| 2026-05-08 03:30 | 39.13311 | -76.64924 | 1733 ft | 177 kts | 214° |
| 2026-05-08 03:30 | 39.11856 | -76.67426 | 2540 ft | 186 kts | 265° |
| 2026-05-08 03:31 | 39.13100 | -76.70367 | 3213 ft | 212 kts | 322° |
| 2026-05-08 03:31 | 39.15636 | -76.72725 | 4390 ft | 229 kts | 323° |
| 2026-05-08 03:32 | 39.16888 | -76.73901 | 5265 ft | 224 kts | 323° |
| 2026-05-08 03:32 | 39.18136 | -76.75115 | 5876 ft | 229 kts | 316° |
| 2026-05-08 03:32 | 39.19101 | -76.76717 | 6537 ft | 232 kts | 295° |
| 2026-05-08 03:32 | 39.19524 | -76.78765 | 6975 ft | 245 kts | 280° |
| 2026-05-08 03:33 | 39.19727 | -76.80981 | 7476 ft | 256 kts | 274° |
| 2026-05-08 03:33 | 39.19747 | -76.83270 | 8182 ft | 257 kts | 274° |
| 2026-05-08 03:33 | 39.20116 | -76.85490 | 8885 ft | 257 kts | 293° |
| 2026-05-08 03:33 | 39.20927 | -76.87505 | 9636 ft | 256 kts | 297° |
| 2026-05-08 03:34 | 39.21792 | -76.89555 | 10240 ft | 260 kts | 295° |
| 2026-05-08 03:34 | 39.22596 | -76.91696 | 10560 ft | 275 kts | 292° |
| 2026-05-08 03:34 | 39.23380 | -76.93984 | 10991 ft | 285 kts | 291° |
| 2026-05-08 03:34 | 39.24164 | -76.96341 | 11608 ft | 290 kts | 291° |
| 2026-05-08 03:35 | 39.24955 | -76.98724 | 12301 ft | 292 kts | 291° |
| 2026-05-08 03:35 | 39.25747 | -77.01098 | 13084 ft | 291 kts | 291° |
| 2026-05-08 03:35 | 39.26696 | -77.03932 | 13857 ft | 295 kts | 291° |
| 2026-05-08 03:35 | 39.27507 | -77.06352 | 14543 ft | 297 kts | 290° |
| 2026-05-08 03:36 | 39.28318 | -77.08773 | 15357 ft | 294 kts | 289° |
| 2026-05-08 03:36 | 39.29126 | -77.11185 | 16026 ft | 296 kts | 289° |
| 2026-05-08 03:36 | 39.29935 | -77.13604 | 16745 ft | 295 kts | 288° |
| 2026-05-08 03:36 | 39.30752 | -77.16048 | 17429 ft | 295 kts | 288° |
| 2026-05-08 03:37 | 39.31562 | -77.18479 | 18021 ft | 298 kts | 287° |
| 2026-05-08 03:37 | 39.32373 | -77.20916 | 18692 ft | 298 kts | 288° |
| 2026-05-08 03:37 | 39.33184 | -77.23352 | 19333 ft | 298 kts | 287° |
| 2026-05-08 03:37 | 39.33998 | -77.25798 | 19888 ft | 300 kts | 287° |
| 2026-05-08 03:38 | 39.34819 | -77.28271 | 20485 ft | 300 kts | 288° |
| 2026-05-08 03:38 | 39.35640 | -77.30739 | 21038 ft | 302 kts | 288° |
| 2026-05-08 03:38 | 39.35831 | -77.31313 | 21189 ft | 301 kts | 288° |
| 2026-05-08 03:38 | 39.35875 | -77.31445 | 21224 ft | 301 kts | 288° |